sensor_id;sensor_type;location;lat;lon;timestamp;pressure;altitude;pressure_sealevel;temperature;humidity
17505;BME280;8870;50.950;11.762;2022-09-12T00:01:49;98647.75;;;13.24;100.00
17505;BME280;8870;50.950;11.762;2022-09-12T00:06:54;98644.72;;;13.19;100.00
17505;BME280;8870;50.950;11.762;2022-09-12T00:12:01;98641.16;;;13.18;100.00
17505;BME280;8870;50.950;11.762;2022-09-12T00:17:06;98637.78;;;13.16;100.00
17505;BME280;8870;50.950;11.762;2022-09-12T00:22:10;98636.97;;;13.16;100.00
17505;BME280;8870;50.950;11.762;2022-09-12T00:27:17;98636.09;;;13.15;100.00
17505;BME280;8870;50.950;11.762;2022-09-12T00:32:22;98631.41;;;13.09;100.00
17505;BME280;8870;50.950;11.762;2022-09-12T00:37:26;98632.06;;;13.11;100.00
17505;BME280;8870;50.950;11.762;2022-09-12T00:42:34;98636.13;;;13.07;100.00
17505;BME280;8870;50.950;11.762;2022-09-12T00:47:40;98633.94;;;12.94;100.00
17505;BME280;8870;50.950;11.762;2022-09-12T00:52:49;98627.72;;;12.85;100.00
17505;BME280;8870;50.950;11.762;2022-09-12T00:58:01;98623.16;;;12.77;100.00
17505;BME280;8870;50.950;11.762;2022-09-12T01:03:08;98628.22;;;12.72;100.00
17505;BME280;8870;50.950;11.762;2022-09-12T01:08:16;98622.31;;;12.60;100.00
17505;BME280;8870;50.950;11.762;2022-09-12T01:13:23;98611.84;;;12.57;100.00
17505;BME280;8870;50.950;11.762;2022-09-12T01:18:32;98610.34;;;12.55;100.00
17505;BME280;8870;50.950;11.762;2022-09-12T01:29:38;98615.72;;;12.38;100.00
17505;BME280;8870;50.950;11.762;2022-09-12T01:34:53;98612.34;;;12.36;100.00
17505;BME280;8870;50.950;11.762;2022-09-12T01:40:09;98630.44;;;12.27;100.00
17505;BME280;8870;50.950;11.762;2022-09-12T01:45:20;98623.66;;;12.23;100.00
17505;BME280;8870;50.950;11.762;2022-09-12T01:50:36;98623.47;;;12.16;100.00
17505;BME280;8870;50.950;11.762;2022-09-12T01:55:47;98621.28;;;12.04;100.00
17505;BME280;8870;50.950;11.762;2022-09-12T02:00:57;98614.09;;;11.94;100.00
17505;BME280;8870;50.950;11.762;2022-09-12T02:06:10;98609.88;;;11.92;100.00
17505;BME280;8870;50.950;11.762;2022-09-12T02:11:18;98599.59;;;11.87;100.00
17505;BME280;8870;50.950;11.762;2022-09-12T02:16:30;98601.47;;;11.86;100.00
17505;BME280;8870;50.950;11.762;2022-09-12T02:21:45;98599.78;;;11.85;100.00
17505;BME280;8870;50.950;11.762;2022-09-12T02:26:54;98596.69;;;11.80;100.00
17505;BME280;8870;50.950;11.762;2022-09-12T02:32:04;98596.19;;;11.77;100.00
17505;BME280;8870;50.950;11.762;2022-09-12T02:37:19;98603.72;;;11.65;100.00
17505;BME280;8870;50.950;11.762;2022-09-12T02:42:27;98589.41;;;11.64;100.00
17505;BME280;8870;50.950;11.762;2022-09-12T02:47:36;98586.72;;;11.64;100.00
17505;BME280;8870;50.950;11.762;2022-09-12T02:52:44;98591.75;;;11.59;100.00
17505;BME280;8870;50.950;11.762;2022-09-12T02:57:49;98585.69;;;11.57;100.00
17505;BME280;8870;50.950;11.762;2022-09-12T03:03:08;98595.47;;;11.58;100.00
17505;BME280;8870;50.950;11.762;2022-09-12T03:08:38;98591.91;;;11.57;100.00
17505;BME280;8870;50.950;11.762;2022-09-12T03:13:52;98602.19;;;11.54;100.00
17505;BME280;8870;50.950;11.762;2022-09-12T03:19:05;98612.63;;;11.49;100.00
17505;BME280;8870;50.950;11.762;2022-09-12T03:24:17;98615.13;;;11.42;100.00
17505;BME280;8870;50.950;11.762;2022-09-12T03:29:26;98603.69;;;11.40;100.00
17505;BME280;8870;50.950;11.762;2022-09-12T03:34:31;98605.50;;;11.39;100.00
17505;BME280;8870;50.950;11.762;2022-09-12T03:39:39;98599.94;;;11.41;100.00
17505;BME280;8870;50.950;11.762;2022-09-12T03:44:44;98603.50;;;11.41;100.00
17505;BME280;8870;50.950;11.762;2022-09-12T03:49:48;98597.25;;;11.41;100.00
17505;BME280;8870;50.950;11.762;2022-09-12T03:54:56;98593.88;;;11.39;100.00
17505;BME280;8870;50.950;11.762;2022-09-12T04:00:00;98602.13;;;11.37;100.00
17505;BME280;8870;50.950;11.762;2022-09-12T04:05:13;98606.69;;;11.37;100.00
17505;BME280;8870;50.950;11.762;2022-09-12T04:10:20;98605.16;;;11.34;100.00
17505;BME280;8870;50.950;11.762;2022-09-12T04:15:26;98602.47;;;11.34;100.00
17505;BME280;8870;50.950;11.762;2022-09-12T04:20:30;98600.44;;;11.36;100.00
17505;BME280;8870;50.950;11.762;2022-09-12T04:25:37;98609.53;;;11.35;100.00
17505;BME280;8870;50.950;11.762;2022-09-12T04:30:42;98606.16;;;11.33;100.00
17505;BME280;8870;50.950;11.762;2022-09-12T04:35:47;98594.38;;;11.34;100.00
17505;BME280;8870;50.950;11.762;2022-09-12T04:40:54;98602.09;;;11.29;100.00
17505;BME280;8870;50.950;11.762;2022-09-12T04:46:04;98609.66;;;11.25;100.00
17505;BME280;8870;50.950;11.762;2022-09-12T04:51:16;98604.59;;;11.22;100.00
17505;BME280;8870;50.950;11.762;2022-09-12T04:56:24;98597.38;;;11.23;100.00
17505;BME280;8870;50.950;11.762;2022-09-12T05:01:29;98605.75;;;11.20;100.00
17505;BME280;8870;50.950;11.762;2022-09-12T05:06:35;98607.94;;;11.16;100.00
17505;BME280;8870;50.950;11.762;2022-09-12T05:11:44;98617.56;;;11.19;100.00
17505;BME280;8870;50.950;11.762;2022-09-12T05:17:05;98605.75;;;11.20;100.00
17505;BME280;8870;50.950;11.762;2022-09-12T05:22:10;98610.09;;;11.13;100.00
17505;BME280;8870;50.950;11.762;2022-09-12T05:27:17;98611.78;;;11.14;100.00
17505;BME280;8870;50.950;11.762;2022-09-12T05:32:22;98622.25;;;11.17;100.00
17505;BME280;8870;50.950;11.762;2022-09-12T05:37:42;98626.28;;;11.13;100.00
17505;BME280;8870;50.950;11.762;2022-09-12T05:42:49;98634.53;;;11.11;100.00
17505;BME280;8870;50.950;11.762;2022-09-12T05:47:53;98642.78;;;11.09;100.00
17505;BME280;8870;50.950;11.762;2022-09-12T05:52:57;98636.41;;;11.10;100.00
17505;BME280;8870;50.950;11.762;2022-09-12T05:58:04;98635.34;;;11.12;100.00
17505;BME280;8870;50.950;11.762;2022-09-12T06:03:09;98634.03;;;11.16;100.00
17505;BME280;8870;50.950;11.762;2022-09-12T06:08:14;98638.25;;;11.18;100.00
17505;BME280;8870;50.950;11.762;2022-09-12T06:13:21;98641.50;;;11.22;100.00
17505;BME280;8870;50.950;11.762;2022-09-12T06:18:25;98646.34;;;11.18;100.00
17505;BME280;8870;50.950;11.762;2022-09-12T06:23:30;98641.50;;;11.22;100.00
17505;BME280;8870;50.950;11.762;2022-09-12T06:28:38;98648.78;;;11.30;100.00
17505;BME280;8870;50.950;11.762;2022-09-12T06:33:45;98653.84;;;11.33;100.00
17505;BME280;8870;50.950;11.762;2022-09-12T06:38:53;98659.63;;;11.38;100.00
17505;BME280;8870;50.950;11.762;2022-09-12T06:44:03;98665.84;;;11.38;100.00
17505;BME280;8870;50.950;11.762;2022-09-12T06:49:14;98665.38;;;11.43;100.00
17505;BME280;8870;50.950;11.762;2022-09-12T06:54:19;98660.56;;;11.55;100.00
17505;BME280;8870;50.950;11.762;2022-09-12T06:59:26;98665.16;;;11.63;100.00
17505;BME280;8870;50.950;11.762;2022-09-12T07:04:31;98671.59;;;11.78;100.00
17505;BME280;8870;50.950;11.762;2022-09-12T07:09:37;98662.38;;;11.89;100.00
17505;BME280;8870;50.950;11.762;2022-09-12T07:14:44;98659.06;;;12.04;100.00
17505;BME280;8870;50.950;11.762;2022-09-12T07:19:48;98656.91;;;12.15;100.00
17505;BME280;8870;50.950;11.762;2022-09-12T07:24:59;98658.78;;;12.23;100.00
17505;BME280;8870;50.950;11.762;2022-09-12T07:30:09;98650.16;;;12.28;100.00
17505;BME280;8870;50.950;11.762;2022-09-12T07:35:13;98646.81;;;12.34;100.00
17505;BME280;8870;50.950;11.762;2022-09-12T07:40:18;98659.81;;;12.47;100.00
17505;BME280;8870;50.950;11.762;2022-09-12T07:45:26;98644.97;;;12.59;100.00
17505;BME280;8870;50.950;11.762;2022-09-12T07:50:30;98649.19;;;12.78;100.00
17505;BME280;8870;50.950;11.762;2022-09-12T07:55:35;98657.41;;;13.02;100.00
17505;BME280;8870;50.950;11.762;2022-09-12T08:00:42;98646.59;;;13.10;100.00
17505;BME280;8870;50.950;11.762;2022-09-12T08:05:47;98641.47;;;13.23;100.00
17505;BME280;8870;50.950;11.762;2022-09-12T08:10:59;98640.78;;;13.38;100.00
17505;BME280;8870;50.950;11.762;2022-09-12T08:16:08;98639.41;;;13.50;100.00
17505;BME280;8870;50.950;11.762;2022-09-12T08:21:16;98637.34;;;13.61;100.00
17505;BME280;8870;50.950;11.762;2022-09-12T08:26:21;98637.63;;;13.74;100.00
17505;BME280;8870;50.950;11.762;2022-09-12T08:31:29;98643.31;;;13.87;100.00
17505;BME280;8870;50.950;11.762;2022-09-12T08:36:37;98632.34;;;14.12;100.00
17505;BME280;8870;50.950;11.762;2022-09-12T08:41:43;98633.78;;;14.23;100.00
17505;BME280;8870;50.950;11.762;2022-09-12T08:47:02;98631.63;;;14.42;100.00
17505;BME280;8870;50.950;11.762;2022-09-12T08:52:15;98630.66;;;14.58;100.00
17505;BME280;8870;50.950;11.762;2022-09-12T08:57:22;98625.50;;;14.71;100.00
17505;BME280;8870;50.950;11.762;2022-09-12T09:02:58;98619.16;;;14.79;100.00
17505;BME280;8870;50.950;11.762;2022-09-12T09:08:16;98620.50;;;14.98;100.00
17505;BME280;8870;50.950;11.762;2022-09-12T09:13:40;98601.50;;;14.98;100.00
17505;BME280;8870;50.950;11.762;2022-09-12T09:19:13;98604.13;;;15.06;100.00
17505;BME280;8870;50.950;11.762;2022-09-12T09:24:22;98599.63;;;15.14;100.00
17505;BME280;8870;50.950;11.762;2022-09-12T09:29:32;98600.03;;;15.25;100.00
17505;BME280;8870;50.950;11.762;2022-09-12T09:34:44;98595.97;;;15.36;100.00
17505;BME280;8870;50.950;11.762;2022-09-12T09:39:55;98582.13;;;15.46;100.00
17505;BME280;8870;50.950;11.762;2022-09-12T09:45:12;98581.06;;;15.62;100.00
17505;BME280;8870;50.950;11.762;2022-09-12T09:50:21;98565.59;;;15.78;100.00
17505;BME280;8870;50.950;11.762;2022-09-12T09:55:31;98547.22;;;15.95;100.00
17505;BME280;8870;50.950;11.762;2022-09-12T10:00:38;98539.50;;;15.98;100.00
17505;BME280;8870;50.950;11.762;2022-09-12T10:05:50;98530.81;;;16.31;100.00
17505;BME280;8870;50.950;11.762;2022-09-12T10:10:58;98524.72;;;16.51;100.00
17505;BME280;8870;50.950;11.762;2022-09-12T10:16:04;98512.66;;;16.60;100.00
17505;BME280;8870;50.950;11.762;2022-09-12T10:21:18;98512.38;;;16.84;100.00
17505;BME280;8870;50.950;11.762;2022-09-12T10:26:24;98515.03;;;16.99;100.00
17505;BME280;8870;50.950;11.762;2022-09-12T10:31:40;98503.78;;;17.15;100.00
17505;BME280;8870;50.950;11.762;2022-09-12T10:36:51;98502.84;;;17.36;100.00
17505;BME280;8870;50.950;11.762;2022-09-12T10:41:56;98495.38;;;17.59;100.00
17505;BME280;8870;50.950;11.762;2022-09-12T10:47:19;98495.41;;;17.72;100.00
17505;BME280;8870;50.950;11.762;2022-09-12T10:52:26;98484.75;;;17.84;100.00
17505;BME280;8870;50.950;11.762;2022-09-12T10:57:50;98479.09;;;17.85;100.00
17505;BME280;8870;50.950;11.762;2022-09-12T11:03:04;98470.97;;;18.06;100.00
17505;BME280;8870;50.950;11.762;2022-09-12T11:08:27;98473.72;;;18.19;100.00
17505;BME280;8870;50.950;11.762;2022-09-12T11:13:50;98473.06;;;18.37;100.00
17505;BME280;8870;50.950;11.762;2022-09-12T11:19:06;98465.31;;;18.47;100.00
17505;BME280;8870;50.950;11.762;2022-09-12T11:24:30;98467.16;;;18.54;100.00
17505;BME280;8870;50.950;11.762;2022-09-12T11:29:47;98462.09;;;18.71;100.00
17505;BME280;8870;50.950;11.762;2022-09-12T11:34:59;98453.22;;;18.89;100.00
17505;BME280;8870;50.950;11.762;2022-09-12T11:40:30;98452.44;;;18.95;100.00
17505;BME280;8870;50.950;11.762;2022-09-12T11:45:42;98448.56;;;19.16;100.00
17505;BME280;8870;50.950;11.762;2022-09-12T11:50:48;98443.44;;;19.40;100.00
17505;BME280;8870;50.950;11.762;2022-09-12T11:56:00;98436.81;;;19.54;100.00
17505;BME280;8870;50.950;11.762;2022-09-12T12:01:11;98440.28;;;19.75;100.00
17505;BME280;8870;50.950;11.762;2022-09-12T12:06:21;98447.34;;;19.83;100.00
17505;BME280;8870;50.950;11.762;2022-09-12T12:11:34;98441.88;;;19.83;100.00
17505;BME280;8870;50.950;11.762;2022-09-12T12:16:41;98431.16;;;19.88;100.00
17505;BME280;8870;50.950;11.762;2022-09-12T12:21:47;98429.25;;;19.82;100.00
17505;BME280;8870;50.950;11.762;2022-09-12T12:26:57;98425.66;;;19.95;100.00
17505;BME280;8870;50.950;11.762;2022-09-12T12:32:20;98417.16;;;20.03;100.00
17505;BME280;8870;50.950;11.762;2022-09-12T12:37:49;98405.59;;;20.26;100.00
17505;BME280;8870;50.950;11.762;2022-09-12T12:43:03;98402.56;;;20.35;100.00
17505;BME280;8870;50.950;11.762;2022-09-12T12:48:14;98403.66;;;20.52;100.00
17505;BME280;8870;50.950;11.762;2022-09-12T12:53:22;98394.97;;;20.81;100.00
17505;BME280;8870;50.950;11.762;2022-09-12T12:58:34;98400.78;;;21.03;100.00
17505;BME280;8870;50.950;11.762;2022-09-12T13:03:43;98382.06;;;21.18;100.00
17505;BME280;8870;50.950;11.762;2022-09-12T13:08:57;98383.66;;;21.26;100.00
17505;BME280;8870;50.950;11.762;2022-09-12T13:14:08;98376.72;;;21.23;100.00
17505;BME280;8870;50.950;11.762;2022-09-12T13:19:33;98378.00;;;21.21;100.00
17505;BME280;8870;50.950;11.762;2022-09-12T13:24:41;98368.13;;;21.20;100.00
17505;BME280;8870;50.950;11.762;2022-09-12T13:30:05;98368.13;;;21.20;89.40
17505;BME280;8870;50.950;11.762;2022-09-12T13:35:17;98360.41;;;21.29;100.00
17505;BME280;8870;50.950;11.762;2022-09-12T13:40:31;98356.34;;;21.19;90.45
17505;BME280;8870;50.950;11.762;2022-09-12T13:45:44;98350.09;;;21.12;100.00
17505;BME280;8870;50.950;11.762;2022-09-12T13:50:53;98350.16;;;21.24;100.00
17505;BME280;8870;50.950;11.762;2022-09-12T13:56:00;98344.69;;;21.36;100.00
17505;BME280;8870;50.950;11.762;2022-09-12T14:01:12;98336.16;;;21.44;100.00
17505;BME280;8870;50.950;11.762;2022-09-12T14:06:18;98336.44;;;21.54;100.00
17505;BME280;8870;50.950;11.762;2022-09-12T14:11:25;98329.88;;;21.55;100.00
17505;BME280;8870;50.950;11.762;2022-09-12T14:16:37;98324.72;;;21.47;90.24
17505;BME280;8870;50.950;11.762;2022-09-12T14:21:42;98318.91;;;21.55;100.00
17505;BME280;8870;50.950;11.762;2022-09-12T14:26:48;98322.25;;;21.58;100.00
17505;BME280;8870;50.950;11.762;2022-09-12T14:32:03;98307.81;;;21.50;95.27
17505;BME280;8870;50.950;11.762;2022-09-12T14:37:14;98310.53;;;21.50;90.67
17505;BME280;8870;50.950;11.762;2022-09-12T14:42:26;98311.25;;;21.46;100.00
17505;BME280;8870;50.950;11.762;2022-09-12T14:47:39;98307.09;;;21.43;100.00
17505;BME280;8870;50.950;11.762;2022-09-12T14:52:44;98304.97;;;21.45;100.00
17505;BME280;8870;50.950;11.762;2022-09-12T14:58:06;98301.59;;;21.43;100.00
17505;BME280;8870;50.950;11.762;2022-09-12T15:03:24;98292.78;;;21.41;100.00
17505;BME280;8870;50.950;11.762;2022-09-12T15:08:30;98293.84;;;21.28;100.00
17505;BME280;8870;50.950;11.762;2022-09-12T15:13:39;98292.72;;;21.17;100.00
17505;BME280;8870;50.950;11.762;2022-09-12T15:18:46;98290.81;;;21.18;100.00
17505;BME280;8870;50.950;11.762;2022-09-12T15:23:51;98286.97;;;21.07;100.00
17505;BME280;8870;50.950;11.762;2022-09-12T15:28:56;98289.09;;;21.05;100.00
17505;BME280;8870;50.950;11.762;2022-09-12T15:34:03;98287.16;;;20.93;100.00
17505;BME280;8870;50.950;11.762;2022-09-12T15:39:08;98294.94;;;20.78;100.00
17505;BME280;8870;50.950;11.762;2022-09-12T15:44:13;98293.72;;;20.74;100.00
17505;BME280;8870;50.950;11.762;2022-09-12T15:49:21;98284.16;;;20.83;100.00
17505;BME280;8870;50.950;11.762;2022-09-12T15:54:25;98281.50;;;21.07;100.00
17505;BME280;8870;50.950;11.762;2022-09-12T15:59:30;98278.78;;;21.19;100.00
17505;BME280;8870;50.950;11.762;2022-09-12T16:04:37;98269.72;;;21.61;100.00
17505;BME280;8870;50.950;11.762;2022-09-12T16:09:42;98271.75;;;22.01;94.89
17505;BME280;8870;50.950;11.762;2022-09-12T16:14:46;98267.16;;;22.54;92.43
17505;BME280;8870;50.950;11.762;2022-09-12T16:19:54;98259.84;;;22.89;95.50
17505;BME280;8870;50.950;11.762;2022-09-12T16:24:58;98241.84;;;23.10;80.88
17505;BME280;8870;50.950;11.762;2022-09-12T16:30:05;98240.31;;;23.31;91.99
17505;BME280;8870;50.950;11.762;2022-09-12T16:35:13;98243.22;;;23.42;81.57
17505;BME280;8870;50.950;11.762;2022-09-12T16:40:18;98233.75;;;23.49;82.12
17505;BME280;8870;50.950;11.762;2022-09-12T16:45:24;98234.13;;;23.58;83.76
17505;BME280;8870;50.950;11.762;2022-09-12T16:50:31;98227.47;;;23.54;84.97
17505;BME280;8870;50.950;11.762;2022-09-12T16:55:35;98219.63;;;23.29;84.80
17505;BME280;8870;50.950;11.762;2022-09-12T17:00:40;98216.69;;;23.01;91.03
17505;BME280;8870;50.950;11.762;2022-09-12T17:05:56;98223.69;;;22.63;96.06
17505;BME280;8870;50.950;11.762;2022-09-12T17:11:04;98209.22;;;22.27;100.00
17505;BME280;8870;50.950;11.762;2022-09-12T17:16:10;98210.59;;;21.89;100.00
17505;BME280;8870;50.950;11.762;2022-09-12T17:21:18;98207.47;;;21.49;100.00
17505;BME280;8870;50.950;11.762;2022-09-12T17:31:27;98208.00;;;20.73;100.00
17505;BME280;8870;50.950;11.762;2022-09-12T17:36:35;98207.59;;;20.27;100.00
17505;BME280;8870;50.950;11.762;2022-09-12T17:41:40;98203.91;;;19.78;100.00
17505;BME280;8870;50.950;11.762;2022-09-12T17:46:46;98196.41;;;19.48;100.00
17505;BME280;8870;50.950;11.762;2022-09-12T17:51:54;98195.53;;;19.29;100.00
17505;BME280;8870;50.950;11.762;2022-09-12T17:56:59;98193.00;;;19.08;100.00
17505;BME280;8870;50.950;11.762;2022-09-12T18:02:09;98192.78;;;18.71;100.00
17505;BME280;8870;50.950;11.762;2022-09-12T18:07:20;98199.94;;;18.33;100.00
17505;BME280;8870;50.950;11.762;2022-09-12T18:12:24;98199.41;;;18.11;100.00
17505;BME280;8870;50.950;11.762;2022-09-12T18:17:29;98201.75;;;17.87;100.00
17505;BME280;8870;50.950;11.762;2022-09-12T18:22:36;98204.09;;;17.64;100.00
17505;BME280;8870;50.950;11.762;2022-09-12T18:27:41;98206.03;;;17.43;100.00
17505;BME280;8870;50.950;11.762;2022-09-12T18:32:46;98202.03;;;17.25;100.00
17505;BME280;8870;50.950;11.762;2022-09-12T18:37:53;98189.69;;;17.09;100.00
17505;BME280;8870;50.950;11.762;2022-09-12T18:42:58;98189.06;;;16.94;100.00
17505;BME280;8870;50.950;11.762;2022-09-12T18:48:03;98190.72;;;16.75;100.00
17505;BME280;8870;50.950;11.762;2022-09-12T18:53:10;98190.88;;;16.67;100.00
17505;BME280;8870;50.950;11.762;2022-09-12T18:58:15;98190.44;;;16.56;100.00
17505;BME280;8870;50.950;11.762;2022-09-12T19:03:19;98191.69;;;16.47;100.00
17505;BME280;8870;50.950;11.762;2022-09-12T19:08:27;98195.19;;;16.41;100.00
17505;BME280;8870;50.950;11.762;2022-09-12T19:13:37;98184.75;;;16.31;100.00
17505;BME280;8870;50.950;11.762;2022-09-12T19:18:42;98182.22;;;16.23;100.00
17505;BME280;8870;50.950;11.762;2022-09-12T19:23:54;98184.91;;;16.16;100.00
17505;BME280;8870;50.950;11.762;2022-09-12T19:28:59;98176.50;;;16.11;100.00
17505;BME280;8870;50.950;11.762;2022-09-12T19:34:05;98186.72;;;16.02;100.00
17505;BME280;8870;50.950;11.762;2022-09-12T19:39:14;98186.47;;;15.90;100.00
17505;BME280;8870;50.950;11.762;2022-09-12T19:44:20;98191.81;;;15.83;100.00
17505;BME280;8870;50.950;11.762;2022-09-12T19:49:27;98192.19;;;15.74;100.00
17505;BME280;8870;50.950;11.762;2022-09-12T19:54:34;98191.09;;;15.68;100.00
17505;BME280;8870;50.950;11.762;2022-09-12T19:59:39;98189.19;;;15.62;100.00
17505;BME280;8870;50.950;11.762;2022-09-12T20:04:45;98185.00;;;15.59;100.00
17505;BME280;8870;50.950;11.762;2022-09-12T20:09:53;98180.81;;;15.56;100.00
17505;BME280;8870;50.950;11.762;2022-09-12T20:14:58;98182.44;;;15.51;100.00
17505;BME280;8870;50.950;11.762;2022-09-12T20:20:03;98177.59;;;15.46;100.00
17505;BME280;8870;50.950;11.762;2022-09-12T20:25:11;98184.06;;;15.45;100.00
17505;BME280;8870;50.950;11.762;2022-09-12T20:30:15;98174.47;;;15.43;100.00
17505;BME280;8870;50.950;11.762;2022-09-12T20:35:20;98178.22;;;15.41;100.00
17505;BME280;8870;50.950;11.762;2022-09-12T20:40:29;98169.81;;;15.36;100.00
17505;BME280;8870;50.950;11.762;2022-09-12T20:45:33;98158.50;;;15.33;100.00
17505;BME280;8870;50.950;11.762;2022-09-12T20:50:38;98161.44;;;15.31;100.00
17505;BME280;8870;50.950;11.762;2022-09-12T20:55:50;98156.41;;;15.28;100.00
17505;BME280;8870;50.950;11.762;2022-09-12T21:00:55;98147.63;;;15.26;100.00
17505;BME280;8870;50.950;11.762;2022-09-12T21:06:00;98148.66;;;15.25;100.00
17505;BME280;8870;50.950;11.762;2022-09-12T21:11:08;98146.34;;;15.22;100.00
17505;BME280;8870;50.950;11.762;2022-09-12T21:16:13;98146.75;;;15.19;100.00
17505;BME280;8870;50.950;11.762;2022-09-12T21:21:19;98137.69;;;15.12;100.00
17505;BME280;8870;50.950;11.762;2022-09-12T21:26:26;98118.69;;;15.12;100.00
17505;BME280;8870;50.950;11.762;2022-09-12T21:31:31;98120.81;;;15.09;100.00
17505;BME280;8870;50.950;11.762;2022-09-12T21:36:36;98097.81;;;15.05;100.00
17505;BME280;8870;50.950;11.762;2022-09-12T21:41:43;98108.22;;;15.02;100.00
17505;BME280;8870;50.950;11.762;2022-09-12T21:46:48;98100.84;;;14.95;100.00
17505;BME280;8870;50.950;11.762;2022-09-12T21:51:53;98097.47;;;14.87;100.00
17505;BME280;8870;50.950;11.762;2022-09-12T21:57:00;98102.63;;;14.82;100.00
17505;BME280;8870;50.950;11.762;2022-09-12T22:02:05;98099.22;;;14.73;100.00
17505;BME280;8870;50.950;11.762;2022-09-12T22:07:11;98093.81;;;14.73;100.00
17505;BME280;8870;50.950;11.762;2022-09-12T22:12:18;98088.78;;;14.70;100.00
17505;BME280;8870;50.950;11.762;2022-09-12T22:17:23;98092.88;;;14.66;100.00
17505;BME280;8870;50.950;11.762;2022-09-12T22:22:28;98097.00;;;14.61;100.00
17505;BME280;8870;50.950;11.762;2022-09-12T22:27:47;98088.16;;;14.53;100.00
17505;BME280;8870;50.950;11.762;2022-09-12T22:32:52;98068.97;;;14.47;100.00
17505;BME280;8870;50.950;11.762;2022-09-12T22:37:56;98066.56;;;14.38;100.00
17505;BME280;8870;50.950;11.762;2022-09-12T22:43:03;98056.47;;;14.25;100.00
17505;BME280;8870;50.950;11.762;2022-09-12T22:48:11;98063.44;;;14.12;100.00
17505;BME280;8870;50.950;11.762;2022-09-12T22:53:17;98066.44;;;14.02;100.00
17505;BME280;8870;50.950;11.762;2022-09-12T22:58:24;98070.31;;;13.93;100.00
17505;BME280;8870;50.950;11.762;2022-09-12T23:03:29;98067.53;;;13.86;100.00
17505;BME280;8870;50.950;11.762;2022-09-12T23:08:35;98054.56;;;13.82;100.00
17505;BME280;8870;50.950;11.762;2022-09-12T23:13:45;98054.56;;;13.82;100.00
17505;BME280;8870;50.950;11.762;2022-09-12T23:18:50;98059.97;;;13.82;100.00
17505;BME280;8870;50.950;11.762;2022-09-12T23:23:55;98049.97;;;13.82;100.00
17505;BME280;8870;50.950;11.762;2022-09-12T23:29:02;98049.34;;;13.80;100.00
17505;BME280;8870;50.950;11.762;2022-09-12T23:34:08;98047.00;;;13.77;100.00
17505;BME280;8870;50.950;11.762;2022-09-12T23:39:13;98043.66;;;13.75;100.00
17505;BME280;8870;50.950;11.762;2022-09-12T23:44:20;98045.25;;;13.69;100.00
17505;BME280;8870;50.950;11.762;2022-09-12T23:49:24;98016.06;;;13.65;100.00
17505;BME280;8870;50.950;11.762;2022-09-12T23:54:29;98021.47;;;13.65;100.00
17505;BME280;8870;50.950;11.762;2022-09-12T23:59:36;98024.94;;;13.59;100.00
